Time,TemperatureF,DewpointF,PressureIn,WindDirection,WindDirectionDegrees,WindSpeedMPH,WindSpeedGustMPH,Humidity,HourlyPrecipIn,Conditions,Clouds,dailyrainin,SolarRadiationWatts/m^2,SoftwareType,DateUTC
2013-03-07 00:02:00,29.0,17.0,-100.00,East,100,5.0,16.0,61,0.00,,,0.00,0.000000,,2013-03-07 05:02:00,
2013-03-07 00:12:00,29.0,17.0,-100.00,East,100,5.0,16.0,61,0.00,,,0.00,0.000000,,2013-03-07 05:12:00,
2013-03-07 00:22:00,29.0,17.0,-100.00,East,100,5.0,16.0,61,0.00,,,0.00,0.000000,,2013-03-07 05:22:00,
2013-03-07 00:53:00,28.0,16.0,-100.00,East,84,4.0,15.0,61,0.00,,,0.00,0.000000,,2013-03-07 05:53:00,
2013-03-07 01:02:00,28.0,16.0,-100.00,East,84,4.0,15.0,61,0.00,,,0.00,0.000000,,2013-03-07 06:02:00,
2013-03-07 01:11:00,28.0,16.0,-100.00,East,84,4.0,15.0,61,0.00,,,0.00,0.000000,,2013-03-07 06:11:00,
2013-03-07 01:22:00,28.0,16.0,-100.00,East,84,4.0,15.0,61,0.00,,,0.00,0.000000,,2013-03-07 06:22:00,
2013-03-07 01:52:00,28.0,16.0,-100.00,East,79,4.0,12.0,61,0.00,,,0.00,0.000000,,2013-03-07 06:52:00,
2013-03-07 02:02:00,28.0,16.0,-100.00,East,79,4.0,12.0,61,0.00,,,0.00,0.000000,,2013-03-07 07:02:00,
2013-03-07 02:11:00,28.0,16.0,-100.00,East,79,4.0,12.0,61,0.00,,,0.00,0.000000,,2013-03-07 07:11:00,
2013-03-07 02:22:00,28.0,16.0,-100.00,East,79,4.0,12.0,61,0.00,,,0.00,0.000000,,2013-03-07 07:22:00,
2013-03-07 02:53:00,28.0,17.0,-100.00,ENE,72,6.0,12.0,63,0.00,,,0.00,0.000000,,2013-03-07 07:53:00,
2013-03-07 03:12:00,28.0,17.0,-100.00,ENE,72,6.0,12.0,63,0.00,,,0.00,0.000000,,2013-03-07 08:12:00,
2013-03-07 03:23:00,28.0,17.0,-100.00,ENE,72,6.0,12.0,63,0.00,,,0.00,0.000000,,2013-03-07 08:23:00,
2013-03-07 03:54:00,27.0,17.0,-100.00,ENE,61,4.0,11.0,65,0.00,,,0.00,0.000000,,2013-03-07 08:54:00,
2013-03-07 04:03:00,27.0,17.0,-100.00,ENE,61,4.0,11.0,65,0.00,,,0.00,0.000000,,2013-03-07 09:03:00,
2013-03-07 04:13:00,27.0,17.0,-100.00,ENE,61,4.0,11.0,65,0.00,,,0.00,0.000000,,2013-03-07 09:13:00,
2013-03-07 04:23:00,27.0,17.0,-100.00,ENE,61,4.0,11.0,65,0.00,,,0.00,0.000000,,2013-03-07 09:23:00,
2013-03-07 04:54:00,27.0,17.0,-100.00,ENE,69,4.0,13.0,65,0.00,,,0.00,0.000000,,2013-03-07 09:54:00,
2013-03-07 05:04:00,27.0,17.0,-100.00,ENE,69,4.0,13.0,65,0.00,,,0.00,0.000000,,2013-03-07 10:04:00,
2013-03-07 05:13:00,27.0,17.0,-100.00,ENE,69,4.0,13.0,65,0.00,,,0.00,0.000000,,2013-03-07 10:13:00,
2013-03-07 05:24:00,27.0,17.0,-100.00,ENE,69,4.0,13.0,65,0.00,,,0.00,0.000000,,2013-03-07 10:24:00,
2013-03-07 05:53:00,26.0,16.0,-100.00,ENE,78,2.0,10.0,66,0.00,,,0.00,0.000000,,2013-03-07 10:53:00,
2013-03-07 06:04:00,26.0,16.0,-100.00,ENE,78,2.0,10.0,66,0.00,,,0.00,0.000000,,2013-03-07 11:04:00,
2013-03-07 06:12:00,26.0,16.0,-100.00,ENE,78,2.0,10.0,66,0.00,,,0.00,0.000000,,2013-03-07 11:12:00,
2013-03-07 06:23:00,26.0,16.0,-100.00,ENE,78,2.0,10.0,66,0.00,,,0.00,0.000000,,2013-03-07 11:23:00,
2013-03-07 06:55:00,26.0,17.0,-100.00,ENE,58,3.0,7.0,68,0.00,,,0.00,0.000000,,2013-03-07 11:55:00,
2013-03-07 07:04:00,26.0,17.0,-100.00,ENE,58,3.0,7.0,68,0.00,,,0.00,0.000000,,2013-03-07 12:04:00,
2013-03-07 07:12:00,26.0,17.0,-100.00,ENE,58,3.0,7.0,68,0.00,,,0.00,0.000000,,2013-03-07 12:12:00,
2013-03-07 07:23:00,26.0,17.0,-100.00,ENE,58,3.0,7.0,68,0.00,,,0.00,0.000000,,2013-03-07 12:23:00,
2013-03-07 07:53:00,27.0,17.0,-100.00,East,84,6.0,14.0,66,0.00,,,0.00,16.000000,,2013-03-07 12:53:00,
2013-03-07 08:03:00,27.0,17.0,-100.00,East,84,6.0,14.0,66,0.00,,,0.00,16.000000,,2013-03-07 13:03:00,
2013-03-07 08:12:00,27.0,17.0,-100.00,East,84,6.0,14.0,66,0.00,,,0.00,16.000000,,2013-03-07 13:12:00,
2013-03-07 08:22:00,27.0,17.0,-100.00,East,84,6.0,14.0,66,0.00,,,0.00,16.000000,,2013-03-07 13:22:00,
2013-03-07 08:53:00,29.0,17.0,-100.00,ENE,70,5.0,11.0,61,0.00,,,0.00,93.000000,,2013-03-07 13:53:00,
2013-03-07 09:02:00,29.0,17.0,-100.00,ENE,70,5.0,11.0,61,0.00,,,0.00,93.000000,,2013-03-07 14:02:00,
2013-03-07 09:12:00,29.0,17.0,-100.00,ENE,70,5.0,11.0,61,0.00,,,0.00,93.000000,,2013-03-07 14:12:00,
2013-03-07 09:23:00,29.0,17.0,-100.00,ENE,70,5.0,11.0,61,0.00,,,0.00,93.000000,,2013-03-07 14:23:00,
2013-03-07 09:54:00,30.0,18.0,-100.00,ENE,71,5.0,13.0,61,0.00,,,0.00,113.000000,,2013-03-07 14:54:00,
2013-03-07 10:03:00,30.0,18.0,-100.00,ENE,71,5.0,13.0,61,0.00,,,0.00,113.000000,,2013-03-07 15:03:00,
2013-03-07 10:12:00,30.0,18.0,-100.00,ENE,71,5.0,13.0,61,0.00,,,0.00,113.000000,,2013-03-07 15:12:00,
2013-03-07 10:23:00,30.0,18.0,-100.00,ENE,71,5.0,13.0,61,0.00,,,0.00,113.000000,,2013-03-07 15:23:00,
2013-03-07 10:53:00,32.0,19.0,-100.00,ENE,63,4.0,12.0,58,0.00,,,0.00,166.000000,,2013-03-07 15:53:00,
2013-03-07 11:03:00,32.0,19.0,-100.00,ENE,63,4.0,12.0,58,0.00,,,0.00,166.000000,,2013-03-07 16:03:00,
2013-03-07 11:13:00,32.0,19.0,-100.00,ENE,63,4.0,12.0,58,0.00,,,0.00,166.000000,,2013-03-07 16:13:00,
2013-03-07 11:24:00,32.0,19.0,-100.00,ENE,63,4.0,12.0,58,0.00,,,0.00,166.000000,,2013-03-07 16:24:00,
2013-03-07 11:53:00,33.0,19.0,-100.00,NE,50,3.0,10.0,56,0.00,,,0.00,217.000000,,2013-03-07 16:53:00,
2013-03-07 12:03:00,33.0,19.0,-100.00,NE,50,3.0,10.0,56,0.00,,,0.00,217.000000,,2013-03-07 17:03:00,
2013-03-07 12:12:00,33.0,19.0,-100.00,NE,50,3.0,10.0,56,0.00,,,0.00,217.000000,,2013-03-07 17:12:00,
2013-03-07 12:23:00,33.0,19.0,-100.00,NE,50,3.0,10.0,56,0.00,,,0.00,217.000000,,2013-03-07 17:23:00,
2013-03-07 12:55:00,34.0,20.0,-100.00,ENE,64,4.0,9.0,56,0.00,,,0.00,211.000000,,2013-03-07 17:55:00,
2013-03-07 13:04:00,34.0,20.0,-100.00,ENE,64,4.0,9.0,56,0.00,,,0.00,211.000000,,2013-03-07 18:04:00,
2013-03-07 13:13:00,34.0,20.0,-100.00,ENE,64,4.0,9.0,56,0.00,,,0.00,211.000000,,2013-03-07 18:13:00,
2013-03-07 13:22:00,34.0,20.0,-100.00,ENE,64,4.0,9.0,56,0.00,,,0.00,211.000000,,2013-03-07 18:22:00,
2013-03-07 13:53:00,34.0,20.0,-100.00,NNE,22,3.0,9.0,56,0.00,,,0.00,177.000000,,2013-03-07 18:53:00,
2013-03-07 14:03:00,34.0,20.0,-100.00,NNE,22,3.0,9.0,56,0.00,,,0.00,177.000000,,2013-03-07 19:03:00,
2013-03-07 14:12:00,34.0,20.0,-100.00,NNE,22,3.0,9.0,56,0.00,,,0.00,177.000000,,2013-03-07 19:12:00,
2013-03-07 14:23:00,34.0,20.0,-100.00,NNE,22,3.0,9.0,56,0.00,,,0.00,177.000000,,2013-03-07 19:23:00,
2013-03-07 14:53:00,35.0,20.0,-100.00,NE,54,4.0,10.0,54,0.00,,,0.00,194.000000,,2013-03-07 19:53:00,
2013-03-07 15:02:00,35.0,20.0,-100.00,NE,54,4.0,10.0,54,0.00,,,0.00,194.000000,,2013-03-07 20:02:00,
2013-03-07 15:14:00,35.0,20.0,-100.00,NE,54,4.0,10.0,54,0.00,,,0.00,194.000000,,2013-03-07 20:14:00,
2013-03-07 15:22:00,35.0,20.0,-100.00,NE,54,4.0,10.0,54,0.00,,,0.00,194.000000,,2013-03-07 20:22:00,
2013-03-07 15:54:00,35.0,20.0,-100.00,NE,51,4.0,11.0,54,0.00,,,0.00,264.000000,,2013-03-07 20:54:00,
2013-03-07 16:03:00,35.0,20.0,-100.00,NE,51,4.0,11.0,54,0.00,,,0.00,264.000000,,2013-03-07 21:03:00,
2013-03-07 16:12:00,35.0,20.0,-100.00,NE,51,4.0,11.0,54,0.00,,,0.00,264.000000,,2013-03-07 21:12:00,
2013-03-07 16:23:00,35.0,20.0,-100.00,NE,51,4.0,11.0,54,0.00,,,0.00,264.000000,,2013-03-07 21:23:00,
2013-03-07 16:53:00,32.0,19.0,-100.00,NE,55,4.0,12.0,57,0.00,,,0.00,129.000000,,2013-03-07 21:53:00,
2013-03-07 17:02:00,32.0,19.0,-100.00,NE,55,4.0,12.0,57,0.00,,,0.00,129.000000,,2013-03-07 22:02:00,
2013-03-07 17:12:00,32.0,19.0,-100.00,NE,55,4.0,12.0,57,0.00,,,0.00,129.000000,,2013-03-07 22:12:00,
2013-03-07 17:23:00,32.0,19.0,-100.00,NE,55,4.0,12.0,57,0.00,,,0.00,129.000000,,2013-03-07 22:23:00,
2013-03-07 17:55:00,30.0,18.0,-100.00,ENE,63,3.0,9.0,60,0.00,,,0.00,41.000000,,2013-03-07 22:55:00,
2013-03-07 18:03:00,30.0,18.0,-100.00,ENE,63,3.0,9.0,60,0.00,,,0.00,41.000000,,2013-03-07 23:03:00,
2013-03-07 18:13:00,30.0,18.0,-100.00,ENE,63,3.0,9.0,60,0.00,,,0.00,41.000000,,2013-03-07 23:13:00,
2013-03-07 18:22:00,30.0,18.0,-100.00,ENE,63,3.0,9.0,60,0.00,,,0.00,41.000000,,2013-03-07 23:22:00,
2013-03-07 18:54:00,30.0,19.0,-100.00,NNE,14,2.0,7.0,62,0.00,,,0.00,2.000000,,2013-03-07 23:54:00,
2013-03-07 19:04:00,30.0,19.0,-100.00,NNE,14,2.0,7.0,62,0.00,,,0.00,2.000000,,2013-03-08 00:04:00,
2013-03-07 19:13:00,30.0,19.0,-100.00,NNE,14,2.0,7.0,62,0.00,,,0.00,2.000000,,2013-03-08 00:13:00,
2013-03-07 19:23:00,30.0,19.0,-100.00,NNE,14,2.0,7.0,62,0.00,,,0.00,2.000000,,2013-03-08 00:23:00,
2013-03-07 19:54:00,30.0,19.0,-100.00,NE,52,2.0,6.0,63,0.00,,,0.00,0.000000,,2013-03-08 00:54:00,
2013-03-07 20:02:00,30.0,19.0,-100.00,NE,52,2.0,6.0,63,0.00,,,0.00,0.000000,,2013-03-08 01:02:00,
2013-03-07 20:12:00,30.0,19.0,-100.00,NE,52,2.0,6.0,63,0.00,,,0.00,0.000000,,2013-03-08 01:12:00,
2013-03-07 20:22:00,30.0,19.0,-100.00,NE,52,2.0,6.0,63,0.00,,,0.00,0.000000,,2013-03-08 01:22:00,
2013-03-07 20:52:00,29.0,18.0,-100.00,NNE,18,2.0,4.0,64,0.00,,,0.00,0.000000,,2013-03-08 01:52:00,
2013-03-07 21:02:00,29.0,18.0,-100.00,NNE,18,2.0,4.0,64,0.00,,,0.00,0.000000,,2013-03-08 02:02:00,
2013-03-07 21:12:00,29.0,18.0,-100.00,NNE,18,2.0,4.0,64,0.00,,,0.00,0.000000,,2013-03-08 02:12:00,
2013-03-07 21:22:00,29.0,18.0,-100.00,NNE,18,2.0,4.0,64,0.00,,,0.00,0.000000,,2013-03-08 02:22:00,
2013-03-07 21:53:00,29.0,19.0,-100.00,NNW,330,2.0,7.0,67,0.00,,,0.00,0.000000,,2013-03-08 02:53:00,
2013-03-07 22:02:00,29.0,19.0,-100.00,NNW,330,2.0,7.0,67,0.00,,,0.00,0.000000,,2013-03-08 03:02:00,
2013-03-07 22:12:00,29.0,19.0,-100.00,NNW,330,2.0,7.0,67,0.00,,,0.00,0.000000,,2013-03-08 03:12:00,
2013-03-07 22:22:00,29.0,19.0,-100.00,NNW,330,2.0,7.0,67,0.00,,,0.00,0.000000,,2013-03-08 03:22:00,
2013-03-07 22:53:00,28.0,19.0,-100.00,North,353,2.0,4.0,68,0.00,,,0.00,0.000000,,2013-03-08 03:53:00,
2013-03-07 23:02:00,28.0,19.0,-100.00,North,353,2.0,4.0,68,0.00,,,0.00,0.000000,,2013-03-08 04:02:00,
2013-03-07 23:12:00,28.0,19.0,-100.00,North,353,2.0,4.0,68,0.00,,,0.00,0.000000,,2013-03-08 04:12:00,
2013-03-07 23:22:00,28.0,19.0,-100.00,North,353,2.0,4.0,68,0.00,,,0.00,0.000000,,2013-03-08 04:22:00,
2013-03-07 23:52:00,28.0,18.0,-100.00,NNW,334,1.0,4.0,66,0.00,,,0.00,0.000000,,2013-03-08 04:52:00,